createdAt,value
2023-01-15T00:01:31.558Z,57.11
2023-01-15T00:06:40.149Z,56.74
2023-01-15T00:11:43.250Z,57.36
2023-01-15T00:16:46.287Z,57.59
2023-01-15T00:21:49.447Z,57.47
2023-01-15T00:27:11.134Z,57.34
2023-01-15T00:32:14.473Z,56.69
2023-01-15T00:37:17.515Z,57.87
2023-01-15T00:42:20.642Z,56.79
2023-01-15T00:47:24.067Z,56.41
2023-01-15T00:52:27.190Z,56.92
2023-01-15T00:57:37.643Z,56.81
2023-01-15T01:02:57.660Z,57.66
2023-01-15T01:08:00.777Z,56.70
2023-01-15T01:13:04.247Z,57.33
2023-01-15T01:18:07.596Z,56.32
2023-01-15T01:23:21.948Z,56.63
2023-01-15T01:28:26.276Z,56.69
2023-01-15T01:33:42.734Z,55.84
2023-01-15T01:38:52.044Z,55.71
2023-01-15T01:49:23.247Z,55.70
2023-01-15T01:54:29.655Z,56.33
2023-01-15T01:59:33.548Z,56.85
2023-01-15T02:04:37.832Z,56.40
2023-01-15T02:09:43.611Z,57.26
2023-01-15T02:15:08.145Z,56.93
2023-01-15T02:20:29.155Z,56.47
2023-01-15T02:25:50.811Z,56.58
2023-01-15T02:31:17.087Z,56.72
2023-01-15T02:36:24.232Z,57.26
2023-01-15T02:41:37.301Z,56.67
2023-01-15T02:46:43.950Z,56.47
2023-01-15T02:52:13.764Z,56.11
2023-01-15T02:57:18.751Z,55.66
2023-01-15T03:02:35.639Z,56.01
2023-01-15T03:07:47.501Z,55.53
2023-01-15T03:13:03.314Z,56.14
2023-01-15T03:18:23.625Z,56.20
2023-01-15T03:28:48.527Z,55.65
2023-01-15T03:33:51.838Z,55.30
2023-01-15T03:38:58.389Z,56.08
2023-01-15T03:44:33.510Z,55.78
2023-01-15T03:49:40.800Z,55.65
2023-01-15T03:55:05.295Z,55.55
2023-01-15T04:00:19.895Z,55.78
2023-01-15T04:05:29.294Z,56.04
2023-01-15T04:10:33.800Z,55.93
2023-01-15T04:15:40.073Z,55.91
2023-01-15T04:20:43.401Z,55.26
2023-01-15T04:25:47.287Z,54.72
2023-01-15T04:36:22.062Z,55.58
2023-01-15T04:41:43.617Z,55.44
2023-01-15T04:46:48.231Z,56.03
2023-01-15T04:51:51.324Z,56.51
2023-01-15T04:56:55.409Z,56.66
2023-01-15T05:02:04.580Z,56.06
2023-01-15T05:07:10.505Z,56.69
2023-01-15T05:12:13.620Z,55.68
2023-01-15T05:17:16.705Z,55.82
2023-01-15T05:22:19.809Z,56.04
2023-01-15T05:27:22.922Z,55.71
2023-01-15T05:32:25.915Z,55.34
2023-01-15T05:37:31.358Z,56.03
2023-01-15T05:42:34.409Z,55.76
2023-01-15T05:52:54.136Z,55.93
2023-01-15T05:57:58.046Z,55.27
2023-01-15T06:03:01.218Z,55.28
2023-01-15T06:08:04.823Z,55.35
2023-01-15T06:13:07.851Z,55.55
2023-01-15T06:18:11.405Z,56.27
2023-01-15T06:23:14.488Z,55.97
2023-01-15T06:28:17.817Z,57.25
2023-01-15T06:33:21.394Z,56.20
2023-01-15T06:38:24.519Z,56.99
2023-01-15T06:43:46.900Z,55.96
2023-01-15T06:48:50.518Z,55.56
2023-01-15T06:53:53.671Z,55.94
2023-01-15T06:58:56.998Z,56.72
2023-01-15T07:04:00.141Z,56.72
2023-01-15T07:09:03.827Z,56.34
2023-01-15T07:14:06.808Z,56.54
2023-01-15T07:19:10.000Z,56.45
2023-01-15T07:24:14.325Z,55.72
2023-01-15T07:29:17.521Z,56.05
2023-01-15T07:34:21.061Z,55.99
2023-01-15T07:39:24.478Z,56.73
2023-01-15T07:44:46.208Z,55.81
2023-01-15T07:49:50.321Z,56.03
2023-01-15T07:54:53.555Z,55.94
2023-01-15T07:59:56.760Z,55.54
2023-01-15T08:04:59.836Z,56.45
2023-01-15T08:10:02.839Z,56.99
2023-01-15T08:15:17.011Z,56.33
2023-01-15T08:20:26.651Z,56.74
2023-01-15T08:25:29.826Z,58.01
2023-01-15T08:31:02.895Z,57.26
2023-01-15T08:36:06.097Z,57.10
2023-01-15T08:41:09.495Z,57.24
2023-01-15T08:46:12.763Z,57.46
2023-01-15T08:51:16.377Z,57.20
2023-01-15T08:56:20.605Z,58.26
2023-01-15T09:06:40.786Z,57.16
2023-01-15T09:11:45.439Z,56.67
2023-01-15T09:16:49.144Z,56.75
2023-01-15T09:21:52.283Z,56.92
2023-01-15T09:26:55.413Z,57.37
2023-01-15T09:31:58.715Z,57.03
2023-01-15T09:37:04.010Z,56.81
2023-01-15T09:42:23.506Z,55.93
2023-01-15T09:47:33.823Z,55.78
2023-01-15T09:53:14.049Z,55.67
2023-01-15T09:58:25.111Z,56.19
2023-01-15T10:03:37.499Z,56.07
2023-01-15T10:08:49.261Z,56.40
2023-01-15T10:14:11.358Z,56.66
2023-01-15T10:19:14.363Z,56.34
2023-01-15T10:24:23.337Z,56.98
2023-01-15T10:29:29.058Z,56.40
2023-01-15T10:35:04.029Z,57.47
2023-01-15T10:40:33.747Z,57.82
2023-01-15T10:45:44.994Z,57.99
2023-01-15T10:50:50.048Z,58.34
2023-01-15T10:56:04.372Z,57.11
2023-01-15T11:01:15.619Z,57.85
2023-01-15T11:06:21.418Z,58.08
2023-01-15T11:11:53.709Z,57.95
2023-01-15T11:17:08.721Z,57.17
2023-01-15T11:22:15.064Z,57.08
2023-01-15T11:27:26.003Z,57.16
2023-01-15T11:38:07.340Z,57.66
2023-01-15T11:43:49.449Z,58.16
2023-01-15T11:49:11.116Z,58.58
2023-01-15T11:54:16.310Z,58.51
2023-01-15T11:59:21.200Z,58.11
2023-01-15T12:04:36.255Z,58.23
2023-01-15T12:10:00.384Z,57.67
2023-01-15T12:15:15.632Z,57.70
2023-01-15T12:20:33.976Z,58.24
2023-01-15T12:25:55.000Z,58.55
2023-01-15T12:31:08.030Z,58.32
2023-01-15T12:36:38.272Z,58.03
2023-01-15T12:42:04.414Z,58.20
2023-01-15T12:47:12.442Z,58.99
2023-01-15T12:52:24.665Z,58.20
2023-01-15T12:57:44.190Z,59.12
2023-01-15T13:03:03.909Z,59.68
2023-01-15T13:08:09.977Z,58.58
2023-01-15T13:13:26.303Z,59.02
2023-01-15T13:18:47.531Z,59.08
2023-01-15T13:24:08.877Z,58.54
2023-01-15T13:29:26.715Z,58.78
2023-01-15T13:34:46.528Z,58.93
2023-01-15T13:39:52.492Z,57.93
2023-01-15T13:44:55.586Z,58.32
2023-01-15T13:50:17.105Z,58.41
2023-01-15T13:55:39.177Z,58.20
2023-01-15T14:00:42.245Z,58.49
2023-01-15T14:05:55.391Z,57.92
2023-01-15T14:16:36.277Z,58.55
2023-01-15T14:21:44.355Z,58.88
2023-01-15T14:26:57.010Z,58.34
2023-01-15T14:32:04.308Z,57.94
2023-01-15T14:37:13.231Z,59.14
2023-01-15T14:42:40.664Z,58.29
2023-01-15T14:47:52.497Z,58.42
2023-01-15T14:58:31.793Z,57.93
2023-01-15T15:03:41.836Z,58.56
2023-01-15T15:08:46.643Z,58.49
2023-01-15T15:19:16.136Z,58.22
2023-01-15T15:24:27.737Z,58.39
2023-01-15T15:34:51.550Z,57.70
2023-01-15T15:40:15.129Z,58.01
2023-01-15T15:45:45.540Z,58.44
2023-01-15T15:50:51.397Z,58.87
2023-01-15T15:55:56.362Z,58.02
2023-01-15T16:06:27.563Z,58.13
2023-01-15T16:11:34.276Z,57.85
2023-01-15T16:16:37.677Z,58.25
2023-01-15T16:21:42.425Z,57.46
2023-01-15T16:26:53.126Z,57.40
2023-01-15T16:31:59.161Z,57.73
2023-01-15T16:37:02.894Z,56.66
2023-01-15T16:42:25.846Z,57.48
2023-01-15T16:47:33.771Z,57.46
2023-01-15T16:52:50.434Z,57.95
2023-01-15T16:58:25.795Z,57.56
2023-01-15T17:03:32.653Z,57.12
2023-01-15T17:08:39.202Z,58.34
2023-01-15T17:13:45.374Z,58.21
2023-01-15T17:18:50.267Z,57.47
2023-01-15T17:23:54.566Z,57.57
2023-01-15T17:34:15.289Z,58.09
2023-01-15T17:39:20.435Z,57.95
2023-01-15T17:44:23.539Z,57.97
2023-01-15T17:49:26.568Z,57.37
2023-01-15T17:54:59.596Z,57.70
2023-01-15T18:05:56.054Z,57.30
2023-01-15T18:10:59.133Z,56.90
2023-01-15T18:16:02.416Z,57.25
2023-01-15T18:21:06.084Z,57.08
2023-01-15T18:26:09.932Z,56.89
2023-01-15T18:31:12.915Z,56.25
2023-01-15T18:36:18.182Z,56.51
2023-01-15T18:41:35.618Z,56.38
2023-01-15T18:46:44.833Z,56.82
2023-01-15T18:52:09.862Z,56.29
2023-01-15T18:57:13.155Z,57.07
2023-01-15T19:02:18.201Z,56.24
2023-01-15T19:07:23.684Z,56.50
2023-01-15T19:12:26.841Z,57.04
2023-01-15T19:17:48.525Z,57.14
2023-01-15T19:23:01.381Z,57.16
2023-01-15T19:33:23.957Z,57.64
2023-01-15T19:38:27.048Z,58.02
2023-01-15T19:43:48.540Z,57.55
2023-01-15T19:49:10.254Z,57.82
2023-01-15T19:54:13.525Z,57.97
2023-01-15T19:59:16.551Z,58.19
2023-01-15T20:04:19.615Z,58.25
2023-01-15T20:09:22.717Z,58.32
2023-01-15T20:14:29.920Z,58.63
2023-01-15T20:19:33.203Z,58.07
2023-01-15T20:24:36.225Z,58.72
2023-01-15T20:29:42.163Z,58.96
2023-01-15T20:34:47.072Z,59.59
2023-01-15T20:39:50.149Z,59.14
2023-01-15T20:44:56.301Z,59.38
2023-01-15T20:49:59.482Z,59.98
2023-01-15T20:55:03.546Z,59.90
2023-01-15T21:00:09.585Z,59.81
2023-01-15T21:05:12.779Z,59.26
2023-01-15T21:10:16.381Z,58.91
2023-01-15T21:15:19.986Z,59.26
2023-01-15T21:20:23.022Z,59.84
2023-01-15T21:30:54.661Z,60.28
2023-01-15T21:35:57.762Z,60.34
2023-01-15T21:41:07.851Z,61.12
2023-01-15T21:46:11.060Z,61.26
2023-01-15T21:56:35.570Z,61.03
2023-01-15T22:01:38.881Z,60.76
2023-01-15T22:06:41.973Z,60.88
2023-01-15T22:11:45.683Z,60.82
2023-01-15T22:16:48.806Z,61.02
2023-01-15T22:27:17.038Z,60.21
2023-01-15T22:32:26.997Z,60.41
2023-01-15T22:37:30.072Z,60.83
2023-01-15T22:42:33.231Z,60.80
2023-01-15T22:47:36.300Z,59.97
2023-01-15T22:52:40.810Z,60.37
2023-01-15T22:57:43.864Z,60.56
2023-01-15T23:02:56.024Z,59.64
2023-01-15T23:07:59.056Z,59.81
2023-01-15T23:13:02.327Z,59.92
2023-01-15T23:18:06.251Z,59.97
2023-01-15T23:23:09.360Z,60.16
2023-01-15T23:28:12.419Z,60.84
2023-01-15T23:33:15.433Z,60.66
2023-01-15T23:38:18.512Z,61.35
2023-01-15T23:43:39.940Z,60.83
2023-01-15T23:48:43.389Z,60.53
2023-01-15T23:53:47.610Z,60.52
2023-01-15T23:58:50.974Z,60.26
